ADDS TAF Data INFO
IDs: Format: Raw Decoded Include METARs

Data at: 1705 UTC 26 Apr 2018

KBLF 261652Z AUTO 00000KT 10SM FEW120 12/02 A2993 RMK AO2 SLP122 T01220022

KBLF 261331Z 2614/2712 15005KT P6SM BKN050
  FM262200 22007KT P6SM VCSH OVC023
  FM270000 28005KT 4SM -RA BR OVC005